createdAt,value
2023-03-03T00:00:40.541Z,40.7
2023-03-03T00:15:37.255Z,40.2
2023-03-03T00:30:37.920Z,37.4
2023-03-03T00:45:47.849Z,38.9
2023-03-03T01:00:38.344Z,39.8
2023-03-03T01:15:39.590Z,37.6
2023-03-03T01:30:40.930Z,37
2023-03-03T01:45:40.469Z,35.7
2023-03-03T02:00:41.083Z,32.1
2023-03-03T02:01:29.922Z,35.4
2023-03-03T02:15:41.983Z,31.2
2023-03-03T02:30:52.113Z,33.7
2023-03-03T02:45:50.295Z,30.6
2023-03-03T03:00:51.753Z,29.1
2023-03-03T03:15:50.807Z,30.3
2023-03-03T03:30:51.486Z,28.9
2023-03-03T03:45:50.186Z,30.2
2023-03-03T04:00:53.232Z,28.9
2023-03-03T04:15:51.917Z,28.6
2023-03-03T04:30:52.625Z,26.5
2023-03-03T04:45:51.938Z,29.7
2023-03-03T05:00:53.835Z,24.3
2023-03-03T05:15:52.676Z,22.4
2023-03-03T05:30:57.355Z,25
2023-03-03T05:45:53.852Z,21.8
2023-03-03T05:52:52.551Z,22.3
2023-03-03T06:07:53.163Z,20.1
2023-03-03T06:22:52.397Z,19.2
2023-03-03T06:37:52.569Z,19.3
2023-03-03T06:52:56.650Z,20.3
2023-03-03T07:07:55.184Z,17.2
2023-03-03T07:22:55.710Z,21.4
2023-03-03T07:37:56.115Z,19.6
2023-03-03T07:52:59.187Z,30.3
2023-03-03T08:07:56.940Z,42.6
2023-03-03T08:22:57.580Z,42
2023-03-03T08:37:58.393Z,42.7
2023-03-03T08:52:58.777Z,38.5
2023-03-03T09:07:59.641Z,37.8
2023-03-03T09:23:00.183Z,40.9
2023-03-03T09:38:03.439Z,41.9
2023-03-03T09:53:00.970Z,40
2023-03-03T10:08:02.181Z,42.5
2023-03-03T10:23:02.165Z,41.8
2023-03-03T10:38:02.997Z,38.7
2023-03-03T10:53:04.121Z,39
2023-03-03T11:08:06.787Z,37.8
2023-03-03T11:23:04.375Z,38
2023-03-03T11:38:06.058Z,38.9
2023-03-03T11:53:07.659Z,38.7
2023-03-03T12:08:09.496Z,42.6
2023-03-03T12:23:08.794Z,41.4
2023-03-03T12:38:11.107Z,41.9
2023-03-03T12:53:10.493Z,40.2
2023-03-03T13:08:10.117Z,39.6
2023-03-03T13:23:10.367Z,37.3
2023-03-03T13:38:19.266Z,36.7
2023-03-03T13:53:37.505Z,37.6
2023-03-03T14:08:12.605Z,40.3
2023-03-03T14:23:12.488Z,38.5
2023-03-03T14:38:13.357Z,43.8
2023-03-03T14:53:26.019Z,46
2023-03-03T15:08:15.766Z,40.8
2023-03-03T15:23:15.704Z,39.9
2023-03-03T15:38:53.039Z,39.2
2023-03-03T15:53:16.782Z,38.6
2023-03-03T16:08:17.035Z,38
2023-03-03T16:23:29.761Z,42.1
2023-03-03T16:38:20.061Z,40.6
2023-03-03T16:53:20.325Z,45.1
2023-03-03T17:08:19.441Z,60.5
2023-03-03T17:23:20.156Z,48.9
2023-03-03T17:38:20.842Z,51.8
2023-03-03T17:53:21.690Z,55.7
2023-03-03T18:08:21.923Z,54
2023-03-03T18:23:25.561Z,53.4
2023-03-03T18:38:23.425Z,55.6
2023-03-03T18:53:24.405Z,63.4
2023-03-03T19:08:25.351Z,78
2023-03-03T19:23:24.690Z,57.8
2023-03-03T19:38:28.311Z,54.5
2023-03-03T19:53:28.482Z,58.5
2023-03-03T20:08:30.430Z,52.1
2023-03-03T20:23:30.123Z,56.7
2023-03-03T20:38:31.142Z,56.4
2023-03-03T20:53:31.264Z,63.2
2023-03-03T21:08:48.117Z,64.9
2023-03-03T21:23:33.214Z,55.9
2023-03-03T21:38:40.263Z,63.9
2023-03-03T21:53:34.828Z,58.5
2023-03-03T22:08:34.327Z,56
2023-03-03T22:23:35.061Z,57.7
2023-03-03T22:38:35.608Z,59.2
2023-03-03T22:53:36.630Z,65.5
2023-03-03T23:00:49.208Z,60.8
2023-03-03T23:15:34.341Z,60.8
2023-03-03T23:30:34.585Z,59.1
2023-03-03T23:45:35.087Z,66.9
